Time;durP1;ratioP1;P1;durP2;ratioP2;P2;SDS_P1;SDS_P2;PMS_P1;PMS_P2;Temp;Humidity;BMP_temperature;BMP_pressure;BME280_temperature;BME280_humidity;BME280_pressure;Samples;Min_cycle;Max_cycle;Signal;HPM_P1;HPM_P2
2022/05/26 00:02:23;;;;;;;2.27;1.10;;;17.40;76.90;;;;;;5115798;28;20993;-70
2022/05/26 00:04:50;;;;;;;3.10;1.50;;;17.40;77.50;;;;;;5116008;28;20859;-70
2022/05/26 00:07:17;;;;;;;3.70;1.57;;;17.40;78.10;;;;;;5116044;28;20453;-70
2022/05/26 00:09:44;;;;;;;5.13;1.20;;;17.40;77.50;;;;;;5115979;28;20827;-70
2022/05/26 00:12:11;;;;;;;1.47;0.97;;;17.40;78.30;;;;;;5115949;28;20450;-70
2022/05/26 00:14:39;;;;;;;3.00;1.10;;;17.50;77.90;;;;;;5115961;28;20449;-69
2022/05/26 00:17:06;;;;;;;2.67;1.13;;;17.50;77.40;;;;;;5115926;28;20509;-69
2022/05/26 00:19:34;;;;;;;1.80;1.10;;;17.50;77.50;;;;;;5115995;28;20463;-69
2022/05/26 00:22:01;;;;;;;2.87;1.10;;;17.50;78.00;;;;;;5116453;28;20517;-69
2022/05/26 00:24:28;;;;;;;1.43;0.80;;;17.50;77.90;;;;;;5115825;28;20446;-70
2022/05/26 00:26:55;;;;;;;3.90;1.10;;;17.50;78.10;;;;;;5115635;28;20458;-69
2022/05/26 00:29:22;;;;;;;2.63;1.00;;;17.50;78.30;;;;;;5115670;28;20475;-69
2022/05/26 00:31:48;;;;;;;2.20;0.90;;;17.50;78.60;;;;;;5115475;28;20957;-69
2022/05/26 00:34:15;;;;;;;2.80;1.20;;;17.50;79.10;;;;;;5115623;28;20443;-70
2022/05/26 00:36:44;;;;;;;5.80;1.30;;;17.40;79.60;;;;;;5115891;28;20424;-70
2022/05/26 00:39:13;;;;;;;2.17;1.33;;;17.40;80.00;;;;;;5115388;28;20471;-70
2022/05/26 00:41:43;;;;;;;3.47;1.40;;;17.40;80.10;;;;;;5115165;28;20816;-69
2022/05/26 00:44:10;;;;;;;5.93;1.40;;;17.40;80.20;;;;;;5115634;28;20492;-69
2022/05/26 00:46:43;;;;;;;4.30;1.00;;;17.40;80.70;;;;;;5115505;28;20459;-69
2022/05/26 00:49:17;;;;;;;5.33;1.37;;;17.30;80.60;;;;;;5115629;28;20431;-69
2022/05/26 00:51:46;;;;;;;1.00;0.80;;;17.40;80.90;;;;;;5115575;28;20477;-69
2022/05/26 00:54:18;;;;;;;2.83;1.20;;;17.30;80.90;;;;;;5116011;28;20442;-69
2022/05/26 00:56:51;;;;;;;3.50;1.73;;;17.30;81.10;;;;;;5115760;28;20443;-70
2022/05/26 00:59:24;;;;;;;2.37;1.03;;;17.30;81.60;;;;;;5115996;28;20897;-70
2022/05/26 01:01:51;;;;;;;1.10;0.73;;;17.30;81.70;;;;;;5115941;28;20443;-69
2022/05/26 01:04:22;;;;;;;3.93;1.40;;;17.30;82.00;;;;;;5115637;28;20982;-69
2022/05/26 01:06:55;;;;;;;2.97;1.33;;;17.30;82.10;;;;;;5115634;28;20487;-69
2022/05/26 01:09:22;;;;;;;3.80;1.00;;;17.30;82.60;;;;;;5115933;28;20481;-70
2022/05/26 01:11:49;;;;;;;1.80;1.50;;;17.20;82.80;;;;;;5115838;28;20481;-69
2022/05/26 01:14:19;;;;;;;2.40;1.37;;;17.20;83.10;;;;;;5116146;28;20446;-69
2022/05/26 01:17:02;;;;;;;2.03;1.27;;;17.20;84.40;;;;;;5116374;28;20446;-70
2022/05/26 01:20:00;;;;;;;2.00;1.20;;;17.20;83.90;;;;;;5116819;28;20482;-70
2022/05/26 01:22:48;;;;;;;2.83;1.00;;;17.30;84.30;;;;;;5116213;28;20470;-70
2022/05/26 01:25:35;;;;;;;2.43;1.20;;;17.20;84.10;;;;;;5116475;28;20779;-70
2022/05/26 01:28:19;;;;;;;1.93;1.20;;;17.20;84.40;;;;;;5116820;28;20464;-69
2022/05/26 01:30:52;;;;;;;1.73;1.03;;;17.10;84.30;;;;;;5115687;28;20462;-70
2022/05/26 01:33:43;;;;;;;3.50;1.10;;;17.20;85.10;;;;;;5115285;28;20451;-70
2022/05/26 01:36:25;;;;;;;1.53;1.07;;;17.20;84.80;;;;;;5114168;28;20423;-69
2022/05/26 01:39:02;;;;;;;3.10;1.10;;;17.20;85.30;;;;;;5114241;28;20439;-69
2022/05/26 01:41:49;;;;;;;3.70;1.10;;;17.30;84.70;;;;;;5114267;28;20808;-70
2022/05/26 01:44:23;;;;;;;4.13;1.03;;;17.30;84.70;;;;;;5113825;28;20429;-70
2022/05/26 01:46:51;;;;;;;4.50;0.90;;;17.30;85.20;;;;;;5113811;28;20457;-69
2022/05/26 01:49:31;;;;;;;2.27;1.43;;;17.20;85.60;;;;;;5114041;28;20525;-69
2022/05/26 01:52:06;;;;;;;2.30;1.07;;;17.20;85.70;;;;;;5113479;28;20435;-69
2022/05/26 01:54:40;;;;;;;4.57;1.27;;;17.20;85.80;;;;;;5113826;28;20450;-70
2022/05/26 01:57:11;;;;;;;2.43;1.27;;;17.20;86.30;;;;;;5113652;28;20926;-70
2022/05/26 01:59:42;;;;;;;9.20;1.63;;;17.20;86.80;;;;;;5113847;28;20819;-70
2022/05/26 02:02:12;;;;;;;3.43;1.30;;;17.20;87.50;;;;;;5113957;28;20423;-69
2022/05/26 02:04:45;;;;;;;1.77;1.60;;;17.10;87.70;;;;;;5114055;28;20462;-70
2022/05/26 02:07:17;;;;;;;3.90;1.20;;;17.10;88.60;;;;;;5114060;28;20435;-69
2022/05/26 02:09:45;;;;;;;3.27;1.50;;;17.10;89.10;;;;;;5113307;28;20466;-70
2022/05/26 02:12:16;;;;;;;2.60;1.10;;;17.00;89.60;;;;;;5113788;28;20439;-69
2022/05/26 02:14:48;;;;;;;1.53;1.30;;;17.00;90.00;;;;;;5113946;28;20435;-69
2022/05/26 02:17:19;;;;;;;2.20;1.50;;;17.00;90.00;;;;;;5113984;28;20427;-69
2022/05/26 02:19:51;;;;;;;1.67;1.20;;;17.10;90.20;;;;;;5113823;28;20475;-70
2022/05/26 02:22:22;;;;;;;2.73;1.50;;;17.10;90.20;;;;;;5113733;28;20435;-70
2022/05/26 02:24:54;;;;;;;3.20;1.47;;;17.00;90.20;;;;;;5113376;28;20427;-70
2022/05/26 02:27:21;;;;;;;3.57;1.13;;;17.00;90.40;;;;;;5113826;28;20439;-70
2022/05/26 02:29:56;;;;;;;2.10;1.20;;;17.00;90.40;;;;;;5113734;28;20467;-69
2022/05/26 02:32:27;;;;;;;2.33;1.33;;;17.00;90.40;;;;;;5113740;28;20435;-69
2022/05/26 02:34:58;;;;;;;4.30;1.33;;;17.00;90.80;;;;;;5114564;28;20778;-69
2022/05/26 02:37:26;;;;;;;2.77;1.40;;;17.00;90.40;;;;;;5113616;28;20434;-69
2022/05/26 02:39:53;;;;;;;2.17;1.67;;;17.00;90.60;;;;;;5113527;28;20459;-69
2022/05/26 02:42:21;;;;;;;3.53;1.63;;;17.00;90.70;;;;;;5113547;28;20461;-69
2022/05/26 02:44:48;;;;;;;7.83;1.67;;;17.00;90.70;;;;;;5113720;28;20443;-69
2022/05/26 02:47:40;;;;;;;2.40;1.43;;;16.90;90.70;;;;;;5113433;28;20459;-70
2022/05/26 02:50:31;;;;;;;2.67;1.60;;;16.90;90.80;;;;;;5096253;28;20481;-69
2022/05/26 02:53:09;;;;;;;2.53;1.37;;;16.80;91.10;;;;;;5098629;28;20439;-70
2022/05/26 02:55:50;;;;;;;3.00;1.40;;;16.80;91.20;;;;;;5113652;28;20520;-69
2022/05/26 02:58:29;;;;;;;3.40;1.93;;;16.80;91.50;;;;;;5113847;28;20498;-70
2022/05/26 03:01:00;;;;;;;2.40;1.70;;;16.80;91.40;;;;;;5113397;28;20454;-69
2022/05/26 03:03:33;;;;;;;2.90;1.80;;;16.80;91.50;;;;;;5116996;28;20489;-69
2022/05/26 03:06:06;;;;;;;4.47;2.23;;;16.70;91.60;;;;;;5117398;28;20446;-69
2022/05/26 03:08:37;;;;;;;4.50;2.10;;;16.70;91.70;;;;;;5117334;28;20431;-69
2022/05/26 03:11:08;;;;;;;1.93;1.70;;;16.70;92.30;;;;;;5117155;28;20470;-69
2022/05/26 03:13:35;;;;;;;3.17;1.90;;;16.60;91.90;;;;;;5117072;28;20438;-69
2022/05/26 03:16:02;;;;;;;3.83;1.60;;;16.60;92.10;;;;;;5117082;28;20515;-69
2022/05/26 03:18:30;;;;;;;4.70;2.10;;;16.70;92.20;;;;;;5116819;28;20450;-69
2022/05/26 03:20:58;;;;;;;3.57;2.00;;;16.70;92.30;;;;;;5116887;28;20502;-69
2022/05/26 03:23:27;;;;;;;5.87;2.07;;;16.70;92.10;;;;;;5116796;28;20482;-69
2022/05/26 03:25:56;;;;;;;4.20;2.47;;;16.70;92.10;;;;;;5116728;28;20476;-70
2022/05/26 03:28:24;;;;;;;2.93;1.97;;;16.70;92.30;;;;;;5116694;28;20435;-69
2022/05/26 03:30:51;;;;;;;6.07;2.30;;;16.70;92.60;;;;;;5116599;28;20473;-69
2022/05/26 03:33:18;;;;;;;4.07;2.10;;;16.80;92.40;;;;;;5116314;28;20840;-69
2022/05/26 03:41:19;;;;;;;5.67;3.30;;;16.60;92.60;;;;;;5116564;28;20441;-69
2022/05/26 03:43:50;;;;;;;5.60;3.17;;;16.60;92.90;;;;;;5116767;28;20472;-69
2022/05/26 03:46:17;;;;;;;3.80;3.00;;;16.60;93.20;;;;;;5116241;28;20462;-69
2022/05/26 03:48:45;;;;;;;4.27;3.10;;;16.60;93.40;;;;;;5116379;28;20450;-69
2022/05/26 03:51:12;;;;;;;5.10;2.73;;;16.60;93.30;;;;;;5116181;28;20478;-69
2022/05/26 03:53:40;;;;;;;4.53;3.00;;;16.60;93.50;;;;;;5116178;28;20443;-69
2022/05/26 03:56:07;;;;;;;3.60;2.87;;;16.60;93.40;;;;;;5116300;28;20451;-70
2022/05/26 03:58:35;;;;;;;12.17;3.30;;;16.60;93.50;;;;;;5116329;28;20442;-69
2022/05/26 04:01:03;;;;;;;7.40;2.90;;;16.50;93.90;;;;;;5115723;28;21052;-69
2022/05/26 04:03:29;;;;;;;6.43;3.03;;;16.50;94.10;;;;;;5115994;28;20540;-70
2022/05/26 04:05:56;;;;;;;8.77;3.60;;;16.50;94.20;;;;;;5115666;28;20941;-69
2022/05/26 04:08:23;;;;;;;9.27;3.40;;;16.50;94.30;;;;;;5115997;28;20447;-70
2022/05/26 04:10:51;;;;;;;6.23;3.70;;;16.50;94.40;;;;;;5115905;28;20511;-70
2022/05/26 04:13:18;;;;;;;8.73;3.50;;;16.50;94.50;;;;;;5116336;28;20827;-70
2022/05/26 04:15:45;;;;;;;6.77;4.00;;;16.50;94.70;;;;;;5115601;28;20439;-70
2022/05/26 04:18:12;;;;;;;10.97;4.37;;;16.50;95.40;;;;;;5115533;28;20451;-70
2022/05/26 04:20:39;;;;;;;7.60;3.80;;;16.50;95.80;;;;;;5115783;28;20817;-70
2022/05/26 04:23:05;;;;;;;6.70;3.80;;;16.40;96.10;;;;;;5115750;28;20486;-70
2022/05/26 04:25:32;;;;;;;11.73;4.40;;;16.50;96.20;;;;;;5115703;28;20435;-70
2022/05/26 04:28:00;;;;;;;9.50;4.40;;;16.40;96.10;;;;;;5115418;28;20443;-70
2022/05/26 04:30:27;;;;;;;8.77;3.93;;;16.40;96.30;;;;;;5115583;28;20470;-70
2022/05/26 04:32:53;;;;;;;4.00;3.33;;;16.40;96.20;;;;;;5115528;28;20454;-70
2022/05/26 04:35:20;;;;;;;10.30;4.40;;;16.50;96.20;;;;;;5115884;28;20459;-70
2022/05/26 04:37:48;;;;;;;11.93;4.80;;;16.50;96.20;;;;;;5115310;28;20435;-70
2022/05/26 04:40:15;;;;;;;11.07;4.20;;;16.50;95.90;;;;;;5115104;28;20985;-70
2022/05/26 04:42:41;;;;;;;10.33;4.40;;;16.40;95.90;;;;;;5115017;28;20447;-70
2022/05/26 04:45:13;;;;;;;8.33;4.33;;;16.40;96.00;;;;;;5115286;28;20493;-70
2022/05/26 04:47:40;;;;;;;11.40;4.60;;;16.50;95.80;;;;;;5114941;28;20933;-70
2022/05/26 04:50:08;;;;;;;7.53;4.37;;;16.50;95.90;;;;;;5114712;28;20496;-70
2022/05/26 04:52:36;;;;;;;13.40;5.40;;;16.60;95.90;;;;;;5115046;28;20813;-70
2022/05/26 04:55:04;;;;;;;8.70;4.20;;;16.60;95.70;;;;;;5115122;28;20473;-70
2022/05/26 04:57:31;;;;;;;8.90;4.77;;;16.70;95.60;;;;;;5114924;28;20454;-70
2022/05/26 04:59:57;;;;;;;8.87;4.60;;;16.70;95.40;;;;;;5114972;28;20458;-70
2022/05/26 05:02:26;;;;;;;14.37;4.60;;;16.70;95.10;;;;;;5115048;28;20443;-70
2022/05/26 05:04:53;;;;;;;10.23;5.13;;;16.70;95.00;;;;;;5115019;28;20487;-70
2022/05/26 05:07:20;;;;;;;8.90;4.40;;;16.70;95.30;;;;;;5115484;28;20455;-70
2022/05/26 05:09:48;;;;;;;8.70;4.33;;;16.70;95.30;;;;;;5114847;28;20462;-70
2022/05/26 05:12:20;;;;;;;12.83;5.27;;;16.80;95.60;;;;;;5114789;28;20447;-70
2022/05/26 05:14:48;;;;;;;8.47;4.37;;;16.80;95.10;;;;;;5114504;28;20905;-70
2022/05/26 05:17:16;;;;;;;11.87;5.40;;;16.80;94.90;;;;;;5114683;28;20453;-70
2022/05/26 05:19:45;;;;;;;11.80;5.50;;;16.90;94.90;;;;;;5114572;28;20489;-70
2022/05/26 05:22:19;;;;;;;10.60;5.20;;;16.90;94.90;;;;;;5114449;28;20451;-70
2022/05/26 05:24:52;;;;;;;7.10;5.07;;;16.90;94.60;;;;;;5114112;28;20482;-70
2022/05/26 05:27:23;;;;;;;11.70;5.37;;;17.00;94.60;;;;;;5114427;28;20840;-70
2022/05/26 05:29:54;;;;;;;8.17;4.77;;;17.00;94.70;;;;;;5114694;28;20466;-70
2022/05/26 05:32:25;;;;;;;13.23;5.53;;;16.90;94.70;;;;;;5114436;28;20431;-70
2022/05/26 05:34:57;;;;;;;7.33;5.10;;;17.00;94.70;;;;;;5114484;28;20447;-70
2022/05/26 05:37:24;;;;;;;10.23;5.47;;;16.90;94.80;;;;;;5114011;28;20504;-70
2022/05/26 05:39:51;;;;;;;9.90;5.17;;;16.90;94.60;;;;;;5114352;28;20463;-70
2022/05/26 05:42:18;;;;;;;9.07;5.17;;;16.90;94.90;;;;;;5114220;28;20446;-69
2022/05/26 05:44:45;;;;;;;8.93;5.00;;;16.90;94.80;;;;;;5115055;28;20483;-69
2022/05/26 05:47:11;;;;;;;9.93;5.40;;;16.90;95.20;;;;;;5113978;28;20465;-70
2022/05/26 05:49:38;;;;;;;12.27;5.80;;;17.00;95.20;;;;;;5114008;28;20454;-70
2022/05/26 05:52:10;;;;;;;12.53;6.80;;;17.10;95.10;;;;;;5114308;28;20799;-69
2022/05/26 05:54:38;;;;;;;11.27;6.93;;;17.10;94.80;;;;;;5114038;28;20427;-70
2022/05/26 05:57:05;;;;;;;10.53;6.77;;;17.20;94.70;;;;;;5114478;28;20438;-70
2022/05/26 05:59:32;;;;;;;10.03;6.57;;;17.20;93.90;;;;;;5113871;28;20470;-69
2022/05/26 06:01:59;;;;;;;14.30;6.60;;;17.20;94.30;;;;;;5114110;28;20462;-70
2022/05/26 06:04:26;;;;;;;10.97;6.10;;;17.20;94.10;;;;;;5113932;28;20482;-70
2022/05/26 06:06:52;;;;;;;11.57;7.00;;;17.20;94.10;;;;;;5113582;28;20446;-70
2022/05/26 06:09:21;;;;;;;15.60;7.20;;;17.30;93.70;;;;;;5113944;28;20470;-70
2022/05/26 06:11:49;;;;;;;9.40;6.50;;;17.40;94.00;;;;;;5114048;28;20443;-70
2022/05/26 06:14:16;;;;;;;13.43;6.23;;;17.40;93.40;;;;;;5113825;28;20448;-70
2022/05/26 06:16:45;;;;;;;14.03;7.10;;;17.50;93.80;;;;;;5113869;28;20447;-70
2022/05/26 06:19:12;;;;;;;12.97;6.67;;;17.60;93.90;;;;;;5113608;28;20840;-70
2022/05/26 06:21:39;;;;;;;17.73;6.23;;;17.60;93.20;;;;;;5113909;28;20465;-70
2022/05/26 06:24:07;;;;;;;14.80;7.20;;;17.60;92.80;;;;;;5113710;28;20474;-70
2022/05/26 06:26:36;;;;;;;9.80;6.33;;;17.60;93.00;;;;;;5113899;28;20461;-70
2022/05/26 06:37:15;;;;;;;11.73;6.50;;;18.00;92.40;;;;;;5115438;28;20936;-70
2022/05/26 06:39:42;;;;;;;10.23;6.43;;;18.10;92.10;;;;;;5117745;28;20459;-70
2022/05/26 06:42:11;;;;;;;7.90;5.77;;;18.20;92.10;;;;;;5117703;28;20446;-70
2022/05/26 06:44:42;;;;;;;10.73;6.03;;;18.30;91.70;;;;;;5117261;28;21028;-70
2022/05/26 06:47:10;;;;;;;15.53;6.13;;;18.40;92.00;;;;;;5117240;28;20486;-70
2022/05/26 06:49:38;;;;;;;10.00;6.00;;;18.40;90.80;;;;;;5117481;28;20477;-70
2022/05/26 06:52:06;;;;;;;15.10;5.70;;;18.40;90.70;;;;;;5117584;28;20947;-70
2022/05/26 06:54:34;;;;;;;11.10;5.90;;;18.40;90.90;;;;;;5117502;28;20447;-70
2022/05/26 06:57:01;;;;;;;8.30;5.67;;;18.50;90.90;;;;;;5117579;28;20466;-70
2022/05/26 06:59:29;;;;;;;13.70;5.43;;;18.50;90.60;;;;;;5117242;28;20477;-71
2022/05/26 07:01:56;;;;;;;10.00;5.90;;;18.60;90.40;;;;;;5117285;28;20451;-70
2022/05/26 07:04:23;;;;;;;12.90;6.63;;;18.70;90.00;;;;;;5117118;28;20474;-70
2022/05/26 07:06:52;;;;;;;10.50;6.60;;;18.70;89.40;;;;;;5117252;28;20871;-70
2022/05/26 07:09:20;;;;;;;9.63;4.97;;;18.60;89.30;;;;;;5117222;28;20482;-69
2022/05/26 07:11:47;;;;;;;10.47;5.80;;;18.50;90.20;;;;;;5117306;28;20492;-69
2022/05/26 07:14:14;;;;;;;12.93;6.27;;;18.50;90.20;;;;;;5117023;28;20446;-69
2022/05/26 07:16:45;;;;;;;8.70;5.40;;;18.50;90.00;;;;;;5117137;28;20442;-69
2022/05/26 07:19:12;;;;;;;7.67;5.33;;;18.60;89.40;;;;;;5116684;28;20453;-69
2022/05/26 07:21:39;;;;;;;10.83;6.70;;;18.60;89.60;;;;;;5116889;28;20446;-69
2022/05/26 07:24:07;;;;;;;15.63;6.20;;;18.70;90.60;;;;;;5116734;28;20513;-69
2022/05/26 07:26:34;;;;;;;11.03;5.80;;;18.80;87.30;;;;;;5116910;28;20511;-69
2022/05/26 07:29:01;;;;;;;8.30;6.73;;;18.90;88.20;;;;;;5116803;28;20451;-69
2022/05/26 07:31:28;;;;;;;8.50;6.97;;;19.10;89.30;;;;;;5116815;28;20443;-69
2022/05/26 07:33:57;;;;;;;9.97;5.90;;;19.10;87.30;;;;;;5117450;28;20445;-69
2022/05/26 07:41:58;;;;;;;9.20;5.33;;;19.50;85.80;;;;;;5117141;28;20418;-70
2022/05/26 07:44:26;;;;;;;8.77;5.10;;;19.60;84.80;;;;;;5116304;28;21010;-70
2022/05/26 07:46:53;;;;;;;11.70;5.30;;;19.70;84.30;;;;;;5116176;28;20454;-70
2022/05/26 07:49:21;;;;;;;8.80;4.80;;;19.80;83.50;;;;;;5115437;28;20466;-70
2022/05/26 07:51:48;;;;;;;14.00;6.50;;;19.80;82.00;;;;;;5116441;28;20485;-70
2022/05/26 07:54:14;;;;;;;10.27;4.73;;;20.00;82.30;;;;;;5116114;28;20941;-70
2022/05/26 07:56:41;;;;;;;9.93;5.53;;;20.00;81.20;;;;;;5116957;28;20451;-70
2022/05/26 07:59:10;;;;;;;6.80;4.73;;;20.10;80.80;;;;;;5116194;28;20517;-70
2022/05/26 08:01:37;;;;;;;11.70;4.60;;;20.20;80.70;;;;;;5116179;28;20485;-70
2022/05/26 08:04:07;;;;;;;8.97;4.17;;;20.30;82.00;;;;;;5115788;28;20494;-70
2022/05/26 08:06:36;;;;;;;13.70;6.27;;;20.30;79.70;;;;;;5115983;28;20535;-70
2022/05/26 08:09:03;;;;;;;7.87;4.23;;;20.40;81.40;;;;;;5116267;28;20443;-70
2022/05/26 08:11:30;;;;;;;7.90;4.43;;;20.60;81.30;;;;;;5115648;28;20499;-70
2022/05/26 08:13:57;;;;;;;11.10;4.40;;;20.80;76.60;;;;;;5115889;28;20451;-70
2022/05/26 08:16:23;;;;;;;7.00;4.10;;;20.80;76.60;;;;;;5115814;28;20443;-70
2022/05/26 08:18:50;;;;;;;8.13;4.33;;;20.80;76.80;;;;;;5115883;28;20501;-70
2022/05/26 08:21:18;;;;;;;5.10;4.30;;;20.70;75.90;;;;;;5115811;28;20482;-70
2022/05/26 08:23:46;;;;;;;10.43;5.03;;;20.50;75.80;;;;;;5115767;28;20451;-70
2022/05/26 08:26:14;;;;;;;10.00;4.57;;;20.30;75.90;;;;;;5115443;28;20522;-70
2022/05/26 08:28:42;;;;;;;6.97;4.50;;;20.30;77.90;;;;;;5115401;28;20455;-70
2022/05/26 08:31:10;;;;;;;7.03;4.13;;;20.40;78.80;;;;;;5115969;28;20470;-70
2022/05/26 08:33:37;;;;;;;9.47;3.80;;;20.40;76.00;;;;;;5115785;28;20454;-70
2022/05/26 08:36:07;;;;;;;7.20;3.87;;;20.30;76.00;;;;;;5115610;28;20464;-70
2022/05/26 08:38:35;;;;;;;7.73;3.83;;;20.30;75.50;;;;;;5115592;28;20451;-70
2022/05/26 08:41:04;;;;;;;7.60;4.40;;;20.30;75.80;;;;;;5115486;28;20512;-70
2022/05/26 08:43:37;;;;;;;8.90;3.90;;;20.40;75.00;;;;;;5115346;28;20446;-70
2022/05/26 08:46:07;;;;;;;5.57;3.47;;;20.50;76.70;;;;;;5115138;28;20525;-71
2022/05/26 08:48:43;;;;;;;6.90;3.47;;;20.60;75.80;;;;;;5115552;28;20476;-70
2022/05/26 08:51:14;;;;;;;5.40;3.50;;;20.70;73.90;;;;;;5115203;28;20466;-70
2022/05/26 08:53:43;;;;;;;5.87;3.80;;;20.90;73.80;;;;;;5115128;28;20427;-70
2022/05/26 08:56:15;;;;;;;8.40;3.80;;;21.00;72.40;;;;;;5114768;28;20930;-70
2022/05/26 08:58:46;;;;;;;7.50;4.10;;;21.10;71.50;;;;;;5114694;28;20906;-71
2022/05/26 09:01:17;;;;;;;10.57;4.40;;;21.20;71.70;;;;;;5114926;28;20498;-70
2022/05/26 09:03:44;;;;;;;6.83;3.50;;;21.40;73.20;;;;;;5114733;28;20470;-70
2022/05/26 09:06:13;;;;;;;12.00;4.30;;;21.60;70.80;;;;;;5114848;28;20532;-70
2022/05/26 09:14:23;;;;;;;7.27;3.63;;;21.50;72.10;;;;;;5088131;28;20508;-71
2022/05/26 09:16:50;;;;;;;4.50;3.33;;;21.50;72.30;;;;;;5114609;28;20434;-71
2022/05/26 09:19:19;;;;;;;8.70;3.30;;;21.80;74.40;;;;;;5114549;28;20492;-70
2022/05/26 09:21:48;;;;;;;6.63;3.23;;;22.00;69.30;;;;;;5114573;28;20451;-70
2022/05/26 09:24:24;;;;;;;6.27;3.50;;;22.50;69.70;;;;;;5114610;28;20439;-71
2022/05/26 09:26:57;;;;;;;6.40;3.30;;;22.90;66.40;;;;;;5114500;28;20438;-71
2022/05/26 09:29:27;;;;;;;5.80;2.90;;;23.00;61.80;;;;;;5114490;28;20470;-70
2022/05/26 09:31:56;;;;;;;5.83;2.80;;;23.10;63.20;;;;;;5114099;28;20497;-71
2022/05/26 09:34:24;;;;;;;4.70;2.80;;;23.10;63.40;;;;;;5114525;28;20478;-70
2022/05/26 09:36:53;;;;;;;7.30;3.43;;;23.20;61.70;;;;;;5114689;28;20454;-70
2022/05/26 09:39:23;;;;;;;4.57;2.83;;;23.10;61.60;;;;;;5114386;28;20453;-71
2022/05/26 09:41:52;;;;;;;8.87;3.33;;;23.20;59.60;;;;;;5114428;28;20435;-71
2022/05/26 09:44:29;;;;;;;9.07;3.40;;;23.40;58.90;;;;;;5113931;28;20960;-71
2022/05/26 09:47:00;;;;;;;8.53;3.27;;;23.40;57.70;;;;;;5114014;28;20501;-71
2022/05/26 09:49:32;;;;;;;12.53;4.13;;;23.40;58.10;;;;;;5114340;28;20462;-71
2022/05/26 09:52:12;;;;;;;6.70;3.00;;;23.20;57.90;;;;;;5114699;28;20431;-71
2022/05/26 09:54:39;;;;;;;7.67;3.00;;;23.00;58.70;;;;;;5114370;28;20423;-71
2022/05/26 09:57:14;;;;;;;6.93;3.07;;;23.00;60.40;;;;;;5114405;28;20649;-71
2022/05/26 09:59:44;;;;;;;5.80;2.50;;;23.20;58.70;;;;;;5114318;28;20473;-71
2022/05/26 10:02:14;;;;;;;7.67;3.00;;;23.00;57.60;;;;;;5114071;28;20447;-71
2022/05/26 10:05:09;;;;;;;5.77;2.97;;;22.90;58.40;;;;;;5113739;28;20888;-71
2022/05/26 10:08:02;;;;;;;7.40;3.17;;;23.20;60.90;;;;;;5092695;28;20465;-71
2022/05/26 10:10:34;;;;;;;9.00;2.67;;;23.60;57.80;;;;;;5109687;28;20482;-71
2022/05/26 10:13:17;;;;;;;5.00;2.60;;;24.10;57.00;;;;;;5113896;28;20788;-71
2022/05/26 10:15:55;;;;;;;8.03;3.30;;;24.50;54.50;;;;;;5115006;28;20427;-71
2022/05/26 10:18:34;;;;;;;10.97;3.30;;;24.50;54.90;;;;;;5115843;28;20434;-71
2022/05/26 10:21:10;;;;;;;9.40;2.87;;;24.20;54.00;;;;;;5115526;28;20467;-71
2022/05/26 10:23:49;;;;;;;8.27;3.17;;;23.70;55.90;;;;;;5115830;28;20429;-71
2022/05/26 10:26:27;;;;;;;6.30;2.77;;;23.50;56.00;;;;;;5116129;28;20470;-71
2022/05/26 10:29:38;;;;;;;8.33;3.50;;;23.30;56.20;;;;;;5116053;28;20426;-71
2022/05/26 10:32:20;;;;;;;6.23;2.60;;;23.10;56.80;;;;;;5102947;28;21073;-71
2022/05/26 10:35:04;;;;;;;5.33;2.20;;;22.90;55.60;;;;;;5113615;28;20960;-71
2022/05/26 10:37:42;;;;;;;6.83;2.30;;;23.00;55.80;;;;;;5114163;28;20445;-71
2022/05/26 10:40:25;;;;;;;7.97;2.70;;;23.50;55.70;;;;;;5113999;28;20466;-71
2022/05/26 10:42:58;;;;;;;7.43;2.77;;;24.30;53.90;;;;;;5114239;28;20427;-71
2022/05/26 10:45:27;;;;;;;3.97;2.07;;;24.90;52.00;;;;;;5114421;28;20466;-71
2022/05/26 10:48:04;;;;;;;7.43;2.40;;;24.80;51.40;;;;;;5113434;28;20914;-71
2022/05/26 10:50:36;;;;;;;4.87;1.87;;;24.40;50.40;;;;;;5113576;28;20921;-71
2022/05/26 10:53:07;;;;;;;4.43;2.60;;;23.90;51.40;;;;;;5113536;28;20431;-71
2022/05/26 10:55:41;;;;;;;5.23;2.47;;;23.70;53.20;;;;;;5113447;28;20423;-71
2022/05/26 10:58:16;;;;;;;6.50;1.97;;;24.50;52.60;;;;;;5113427;28;20435;-71
2022/05/26 11:00:43;;;;;;;6.77;2.10;;;25.60;49.90;;;;;;5113134;28;20857;-71
2022/05/26 11:03:14;;;;;;;6.40;2.30;;;26.40;50.00;;;;;;5113484;28;20450;-71
2022/05/26 11:05:46;;;;;;;3.97;2.07;;;27.00;45.70;;;;;;5113447;28;20467;-71
2022/05/26 11:08:26;;;;;;;7.10;1.80;;;26.80;44.20;;;;;;5113730;28;20440;-71
2022/05/26 11:10:57;;;;;;;4.50;2.10;;;26.20;44.50;;;;;;5113395;28;20466;-71
2022/05/26 11:13:42;;;;;;;4.93;2.70;;;25.40;46.50;;;;;;5113513;28;20488;-71
2022/05/26 11:19:18;;;;;;;3.37;2.00;;;25.70;47.40;;;;;;5113319;28;20398;-71
2022/05/26 11:21:45;;;;;;;3.27;1.60;;;27.10;47.60;;;;;;5113469;28;20430;-72
2022/05/26 11:24:12;;;;;;;5.70;2.20;;;27.60;42.00;;;;;;5115003;28;20423;-71
2022/05/26 11:26:46;;;;;;;6.27;2.27;;;27.00;43.00;;;;;;5116848;28;20463;-72
2022/05/26 11:29:20;;;;;;;3.17;2.00;;;26.20;43.60;;;;;;5116826;28;20774;-71
2022/05/26 11:37:43;;;;;;;5.00;2.13;;;23.90;48.40;;;;;;5034121;28;20956;-71
2022/05/26 11:40:12;;;;;;;5.93;2.20;;;23.70;49.40;;;;;;5033840;28;20471;-71
2022/05/26 11:42:50;;;;;;;3.40;1.70;;;23.80;49.20;;;;;;5071615;28;20443;-71
2022/05/26 11:45:20;;;;;;;5.10;2.47;;;24.10;48.80;;;;;;5116326;28;20466;-71
2022/05/26 11:47:58;;;;;;;6.30;2.40;;;24.00;48.10;;;;;;5116581;28;20427;-71
2022/05/26 11:50:59;;;;;;;5.77;2.43;;;23.70;50.70;;;;;;5116236;28;20470;-71
2022/05/26 11:53:41;;;;;;;3.23;2.33;;;23.30;51.00;;;;;;5116415;28;20804;-71
2022/05/26 11:56:41;;;;;;;6.20;2.30;;;23.10;52.50;;;;;;5115940;28;20937;-71
2022/05/26 11:59:21;;;;;;;4.73;2.53;;;22.80;51.60;;;;;;5013675;28;20526;-70
2022/05/26 12:01:49;;;;;;;6.17;2.50;;;23.30;57.40;;;;;;5103600;28;20459;-71
2022/05/26 12:04:25;;;;;;;5.30;2.47;;;24.60;52.00;;;;;;5116046;28;20469;-71
2022/05/26 12:06:59;;;;;;;4.33;2.30;;;25.10;47.10;;;;;;5116080;28;20462;-71
2022/05/26 12:09:33;;;;;;;3.90;2.03;;;24.80;46.20;;;;;;5116045;28;20470;-71
2022/05/26 12:12:02;;;;;;;4.30;2.00;;;24.50;47.20;;;;;;5116501;28;20431;-71
2022/05/26 12:14:33;;;;;;;4.57;2.43;;;24.20;48.60;;;;;;5115833;28;20455;-71
2022/05/26 12:17:35;;;;;;;6.80;2.60;;;24.00;50.10;;;;;;5116195;28;20427;-70
2022/05/26 12:20:05;;;;;;;6.57;2.13;;;23.70;50.10;;;;;;5115834;28;20470;-71
2022/05/26 12:22:37;;;;;;;2.90;2.30;;;23.50;50.20;;;;;;5116053;28;20453;-71
2022/05/26 12:25:20;;;;;;;4.30;1.90;;;23.70;50.60;;;;;;5115349;28;20906;-71
2022/05/26 12:28:03;;;;;;;4.50;2.63;;;23.90;50.50;;;;;;5115706;28;20442;-71
2022/05/26 12:30:34;;;;;;;2.90;2.00;;;24.10;50.60;;;;;;5115830;28;20474;-71
2022/05/26 12:33:05;;;;;;;4.80;2.60;;;24.60;48.80;;;;;;5115760;28;20439;-71
2022/05/26 12:35:38;;;;;;;4.33;2.10;;;25.30;48.80;;;;;;5115183;28;20438;-71
2022/05/26 12:38:32;;;;;;;4.43;2.40;;;25.70;46.30;;;;;;5115661;28;20431;-71
2022/05/26 12:41:04;;;;;;;6.33;2.80;;;25.60;46.60;;;;;;5115134;28;20981;-71
2022/05/26 12:43:47;;;;;;;8.10;2.73;;;25.80;48.20;;;;;;5115522;28;20434;-71
2022/05/26 12:46:44;;;;;;;4.17;1.90;;;26.70;45.00;;;;;;5115084;28;20489;-71
2022/05/26 12:49:24;;;;;;;3.90;1.80;;;27.30;42.80;;;;;;5115306;28;20440;-71
2022/05/26 12:52:07;;;;;;;3.43;1.60;;;27.70;40.70;;;;;;5115042;28;20431;-71
2022/05/26 12:54:44;;;;;;;6.70;1.97;;;28.10;40.30;;;;;;5115080;28;20786;-71
2022/05/26 12:57:17;;;;;;;7.00;2.10;;;28.90;39.60;;;;;;5114843;28;20913;-71
2022/05/26 12:59:44;;;;;;;3.70;1.73;;;29.90;38.20;;;;;;5115334;28;20473;-71
2022/05/26 13:02:14;;;;;;;4.70;2.20;;;30.90;36.40;;;;;;5115118;28;20447;-71
2022/05/26 13:04:41;;;;;;;2.90;1.60;;;31.00;33.50;;;;;;5115391;28;20446;-71
2022/05/26 13:07:10;;;;;;;5.93;2.20;;;30.70;33.90;;;;;;5114976;28;20508;-71
2022/05/26 13:09:43;;;;;;;2.40;1.87;;;30.10;33.60;;;;;;5114706;28;20901;-71
2022/05/26 13:12:12;;;;;;;4.60;1.93;;;29.40;34.40;;;;;;5115108;28;20484;-71
2022/05/26 13:14:45;;;;;;;4.30;1.80;;;28.80;35.00;;;;;;5114559;28;20459;-71
2022/05/26 13:17:14;;;;;;;2.30;1.77;;;28.80;37.60;;;;;;5114773;28;20420;-71
2022/05/26 13:19:43;;;;;;;5.43;2.13;;;29.00;35.00;;;;;;5114712;28;20467;-71
2022/05/26 13:22:14;;;;;;;3.57;1.40;;;29.50;34.30;;;;;;5114455;28;20442;-71
2022/05/26 13:24:52;;;;;;;3.90;1.67;;;30.20;32.20;;;;;;5114805;28;20435;-71
2022/05/26 13:27:19;;;;;;;2.97;1.70;;;31.00;35.10;;;;;;5114622;28;20479;-71
2022/05/26 13:29:49;;;;;;;2.13;1.53;;;31.70;30.20;;;;;;5114972;28;20470;-72
2022/05/26 13:35:15;;;;;;;4.87;2.00;;;32.00;28.60;;;;;;5115162;28;20468;-71
2022/05/26 13:37:43;;;;;;;2.73;1.73;;;31.70;30.30;;;;;;5114719;28;20449;-71
2022/05/26 13:40:14;;;;;;;5.97;2.10;;;32.00;29.80;;;;;;5114631;28;20470;-71
2022/05/26 13:42:44;;;;;;;2.83;1.73;;;32.30;29.20;;;;;;5114817;28;20431;-71
2022/05/26 13:45:19;;;;;;;2.80;2.03;;;32.60;28.70;;;;;;5114952;28;20553;-72